createdAt,value
2023-03-11T00:00:48.629Z,7.37
2023-03-11T00:03:22.068Z,7.05
2023-03-11T00:05:52.102Z,8.50
2023-03-11T00:08:25.172Z,9.08
2023-03-11T00:11:00.099Z,7.85
2023-03-11T00:13:29.586Z,5.80
2023-03-11T00:15:57.369Z,8.05
2023-03-11T00:18:30.308Z,7.22
2023-03-11T00:20:59.604Z,7.90
2023-03-11T00:23:28.358Z,5.55
2023-03-11T00:25:56.365Z,4.67
2023-03-11T00:28:26.115Z,8.58
2023-03-11T00:30:54.026Z,6.37
2023-03-11T00:33:22.833Z,5.17
2023-03-11T00:35:51.229Z,7.05
2023-03-11T00:38:21.213Z,4.15
2023-03-11T00:40:49.693Z,6.53
2023-03-11T00:43:17.557Z,4.03
2023-03-11T00:45:45.500Z,8.25
2023-03-11T00:48:14.508Z,4.80
2023-03-11T00:50:42.613Z,7.75
2023-03-11T00:53:11.622Z,13.15
2023-03-11T00:56:02.179Z,15.18
2023-03-11T00:58:32.179Z,8.35
2023-03-11T01:01:00.010Z,6.87
2023-03-11T01:03:27.939Z,5.03
2023-03-11T01:05:55.690Z,7.92
2023-03-11T01:08:26.538Z,9.00
2023-03-11T01:10:55.280Z,7.70
2023-03-11T01:13:23.145Z,6.90
2023-03-11T01:15:51.972Z,6.60
2023-03-11T01:18:21.693Z,7.03
2023-03-11T01:20:50.174Z,4.67
2023-03-11T01:23:19.424Z,8.35
2023-03-11T01:25:48.404Z,5.45
2023-03-11T01:28:16.070Z,5.92
2023-03-11T01:30:44.926Z,6.70
2023-03-11T01:33:19.308Z,7.25
2023-03-11T01:35:48.839Z,6.03
2023-03-11T01:38:16.812Z,4.90
2023-03-11T01:40:48.689Z,5.50
2023-03-11T01:43:45.875Z,7.17
2023-03-11T01:46:29.538Z,6.55
2023-03-11T01:49:01.166Z,6.20
2023-03-11T01:51:41.072Z,5.30
2023-03-11T01:54:14.599Z,6.67
2023-03-11T01:56:44.317Z,7.30
2023-03-11T01:59:15.900Z,6.90
2023-03-11T02:02:04.299Z,5.92
2023-03-11T02:04:34.743Z,5.90
2023-03-11T02:07:04.513Z,5.80
2023-03-11T02:09:32.181Z,5.80
2023-03-11T02:12:00.847Z,5.80
2023-03-11T02:14:30.709Z,5.03
2023-03-11T02:16:59.823Z,5.10
2023-03-11T02:20:05.017Z,5.28
2023-03-11T02:22:33.757Z,6.12
2023-03-11T02:25:25.405Z,5.90
2023-03-11T02:27:55.330Z,7.70
2023-03-11T02:30:27.142Z,5.50
2023-03-11T02:32:56.320Z,5.37
2023-03-11T02:35:24.541Z,6.47
2023-03-11T02:37:54.594Z,6.15
2023-03-11T02:40:30.509Z,7.55
2023-03-11T02:43:06.137Z,5.85
2023-03-11T02:45:36.243Z,5.92
2023-03-11T02:48:04.583Z,8.05
2023-03-11T02:50:33.981Z,8.78
2023-03-11T02:53:01.763Z,7.10
2023-03-11T02:55:29.523Z,7.87
2023-03-11T02:57:57.592Z,9.28
2023-03-11T03:00:25.892Z,7.28
2023-03-11T03:02:55.334Z,6.40
2023-03-11T03:05:23.765Z,5.10
2023-03-11T03:07:51.789Z,4.00
2023-03-11T03:10:21.830Z,6.72
2023-03-11T03:12:50.008Z,5.20
2023-03-11T03:15:18.221Z,6.50
2023-03-11T03:17:46.753Z,5.80
2023-03-11T03:20:14.847Z,7.10
2023-03-11T03:22:44.314Z,7.53
2023-03-11T03:25:13.027Z,5.03
2023-03-11T03:27:44.232Z,6.30
2023-03-11T03:30:13.081Z,7.08
2023-03-11T03:32:41.395Z,7.00
2023-03-11T03:35:11.038Z,8.38
2023-03-11T03:37:40.843Z,6.70
2023-03-11T03:40:10.913Z,8.30
2023-03-11T03:42:39.184Z,8.83
2023-03-11T03:45:09.664Z,5.03
2023-03-11T03:47:37.505Z,5.03
2023-03-11T03:50:09.867Z,4.70
2023-03-11T03:52:39.216Z,6.90
2023-03-11T03:55:08.162Z,5.50
2023-03-11T03:57:36.075Z,7.53
2023-03-11T04:00:07.618Z,5.42
2023-03-11T04:02:37.379Z,7.33
2023-03-11T04:05:07.614Z,7.47
2023-03-11T04:07:36.208Z,6.67
2023-03-11T04:10:06.440Z,7.45
2023-03-11T04:12:34.430Z,9.23
2023-03-11T04:15:02.947Z,10.32
2023-03-11T04:17:30.770Z,9.93
2023-03-11T04:19:58.984Z,10.35
2023-03-11T04:22:26.827Z,8.25
2023-03-11T04:24:55.062Z,9.00
2023-03-11T04:27:22.702Z,4.80
2023-03-11T04:29:51.032Z,5.90
2023-03-11T04:32:19.174Z,7.62
2023-03-11T04:34:47.367Z,7.42
2023-03-11T04:37:15.069Z,7.37
2023-03-11T04:39:42.707Z,6.37
2023-03-11T04:42:12.322Z,5.08
2023-03-11T04:44:39.786Z,7.28
2023-03-11T04:47:07.554Z,7.17
2023-03-11T04:49:35.810Z,8.28
2023-03-11T04:52:04.628Z,7.97
2023-03-11T04:54:32.313Z,7.03
2023-03-11T04:57:00.202Z,9.85
2023-03-11T04:59:27.925Z,9.75
2023-03-11T05:01:55.706Z,9.20
2023-03-11T05:04:23.641Z,10.00
2023-03-11T05:06:51.574Z,12.18
2023-03-11T05:09:19.868Z,13.90
2023-03-11T05:11:47.991Z,17.50
2023-03-11T05:14:17.381Z,20.43
2023-03-11T05:16:45.312Z,21.30
2023-03-11T05:19:17.596Z,25.60
2023-03-11T05:21:45.237Z,62.17
2023-03-11T05:24:12.863Z,63.98
2023-03-11T05:26:40.842Z,59.23
2023-03-11T05:29:08.968Z,48.75
2023-03-11T05:31:37.038Z,22.48
2023-03-11T05:34:05.193Z,16.48
2023-03-11T05:36:33.128Z,14.98
2023-03-11T05:39:01.337Z,13.40
2023-03-11T05:41:29.458Z,13.18
2023-03-11T05:43:56.950Z,13.80
2023-03-11T05:46:27.651Z,16.52
2023-03-11T05:48:55.855Z,17.15
2023-03-11T05:51:23.583Z,23.73
2023-03-11T05:53:51.614Z,36.25
2023-03-11T05:56:23.045Z,30.02
2023-03-11T05:58:51.144Z,13.03
2023-03-11T06:01:20.323Z,15.58
2023-03-11T06:03:48.428Z,25.40
2023-03-11T06:06:17.266Z,20.23
2023-03-11T06:08:46.843Z,13.72
2023-03-11T06:11:14.892Z,12.30
2023-03-11T06:13:43.153Z,13.55
2023-03-11T06:16:11.732Z,16.70
2023-03-11T06:18:39.442Z,22.05
2023-03-11T06:21:08.072Z,27.65
2023-03-11T06:23:35.749Z,39.00
2023-03-11T06:26:05.676Z,64.90
2023-03-11T06:28:35.325Z,55.25
2023-03-11T06:31:14.879Z,35.55
2023-03-11T06:33:43.560Z,22.48
2023-03-11T06:36:14.136Z,27.35
2023-03-11T06:38:42.621Z,28.47
2023-03-11T06:41:10.440Z,25.45
2023-03-11T06:43:38.541Z,34.50
2023-03-11T06:46:13.369Z,41.48
2023-03-11T06:48:41.555Z,27.25
2023-03-11T06:51:10.840Z,15.95
2023-03-11T06:53:39.158Z,32.60
2023-03-11T06:56:13.441Z,30.35
2023-03-11T06:58:49.462Z,26.80
2023-03-11T07:01:24.638Z,35.48
2023-03-11T07:03:53.632Z,60.23
2023-03-11T07:06:26.038Z,42.78
2023-03-11T07:11:27.513Z,4.62
2023-03-11T07:13:57.100Z,3.17
2023-03-11T07:16:30.026Z,3.65
2023-03-11T07:19:02.740Z,3.15
2023-03-11T07:21:32.323Z,2.33
2023-03-11T07:24:01.822Z,1.62
2023-03-11T07:26:31.682Z,2.80
2023-03-11T07:29:00.405Z,2.45
2023-03-11T07:31:31.285Z,3.12
2023-03-11T07:34:01.856Z,3.00
2023-03-11T07:36:30.284Z,3.58
2023-03-11T07:39:04.323Z,3.42
2023-03-11T07:41:34.666Z,3.90
2023-03-11T07:44:04.139Z,3.55
2023-03-11T07:46:32.299Z,3.50
2023-03-11T07:49:03.114Z,3.20
2023-03-11T07:51:33.600Z,3.35
2023-03-11T07:54:02.168Z,3.90
2023-03-11T07:56:33.535Z,4.10
2023-03-11T07:59:03.971Z,3.62
2023-03-11T08:01:35.200Z,3.90
2023-03-11T08:04:06.571Z,3.55
2023-03-11T08:06:36.799Z,3.65
2023-03-11T08:09:08.361Z,6.15
2023-03-11T08:11:36.666Z,17.37
2023-03-11T08:14:05.565Z,12.00
2023-03-11T08:16:33.484Z,16.90
2023-03-11T08:19:01.113Z,9.05
2023-03-11T08:21:31.530Z,17.30
2023-03-11T08:24:01.319Z,11.83
2023-03-11T08:26:29.336Z,14.87
2023-03-11T08:28:58.454Z,15.65
2023-03-11T08:31:30.393Z,20.08
2023-03-11T08:34:02.995Z,17.30
2023-03-11T08:36:31.811Z,15.43
2023-03-11T08:39:00.284Z,9.90
2023-03-11T08:41:28.596Z,8.70
2023-03-11T08:43:56.277Z,8.73
2023-03-11T08:46:38.105Z,4.87
2023-03-11T08:49:06.726Z,13.60
2023-03-11T08:51:35.271Z,11.60
2023-03-11T08:54:03.796Z,13.20
2023-03-11T08:56:31.766Z,7.00
2023-03-11T08:58:59.573Z,3.10
2023-03-11T09:01:28.979Z,5.87
2023-03-11T09:03:56.976Z,4.85
2023-03-11T09:06:25.077Z,2.70
2023-03-11T09:08:52.886Z,3.30
2023-03-11T09:11:22.106Z,4.10
2023-03-11T09:13:50.217Z,3.80
2023-03-11T09:16:21.793Z,3.27
2023-03-11T09:18:49.750Z,3.75
2023-03-11T09:21:17.491Z,2.92
2023-03-11T09:23:45.683Z,4.28
2023-03-11T09:26:13.609Z,13.50
2023-03-11T09:28:42.145Z,14.40
2023-03-11T09:31:10.010Z,15.75
2023-03-11T09:33:39.920Z,15.88
2023-03-11T09:36:10.688Z,15.58
2023-03-11T09:38:38.351Z,6.80
2023-03-11T09:41:26.725Z,7.30
2023-03-11T09:44:22.357Z,4.60
2023-03-11T09:47:27.484Z,3.10
2023-03-11T09:50:06.729Z,2.22
2023-03-11T09:52:58.306Z,2.08
2023-03-11T09:55:52.082Z,2.30
2023-03-11T09:58:54.829Z,2.10
2023-03-11T10:01:42.340Z,2.62
2023-03-11T10:04:26.183Z,3.00
2023-03-11T10:09:39.726Z,3.25
2023-03-11T10:12:45.378Z,1.98
2023-03-11T10:15:40.205Z,3.60
2023-03-11T10:18:28.430Z,3.35
2023-03-11T10:21:11.015Z,2.47
2023-03-11T10:23:59.268Z,2.00
2023-03-11T10:26:44.277Z,3.33
2023-03-11T10:29:32.171Z,3.22
2023-03-11T10:32:07.424Z,2.33
2023-03-11T10:34:43.175Z,2.00
2023-03-11T10:37:47.931Z,2.45
2023-03-11T10:40:25.601Z,3.30
2023-03-11T10:42:57.125Z,2.30
2023-03-11T10:45:27.156Z,5.60
2023-03-11T10:47:57.692Z,2.60
2023-03-11T10:50:25.288Z,4.62
2023-03-11T10:53:07.353Z,4.42
2023-03-11T10:55:35.627Z,3.77
2023-03-11T10:58:13.130Z,1.92
2023-03-11T11:00:41.025Z,0.98
2023-03-11T11:03:20.307Z,1.52
2023-03-11T11:05:58.357Z,1.27
2023-03-11T11:08:26.208Z,1.10
2023-03-11T11:11:00.406Z,0.98
2023-03-11T11:13:31.860Z,0.90
2023-03-11T11:16:20.456Z,1.50
2023-03-11T11:18:59.771Z,1.35
2023-03-11T11:21:51.870Z,0.40
2023-03-11T11:24:26.734Z,1.60
2023-03-11T11:27:22.901Z,0.60
2023-03-11T11:30:16.452Z,1.02
2023-03-11T11:32:44.052Z,1.98
2023-03-11T11:35:16.003Z,2.62
2023-03-11T11:37:52.944Z,3.45
2023-03-11T11:40:30.607Z,2.45
2023-03-11T11:43:17.383Z,1.70
2023-03-11T11:45:49.280Z,3.27
2023-03-11T11:49:04.138Z,4.78
2023-03-11T11:51:37.090Z,2.98
2023-03-11T11:54:27.003Z,4.22
2023-03-11T11:56:56.401Z,2.62
2023-03-11T11:59:25.391Z,1.57
2023-03-11T12:02:19.791Z,1.95
2023-03-11T12:05:21.941Z,3.12
2023-03-11T12:08:23.915Z,3.72
2023-03-11T12:11:01.452Z,5.35
2023-03-11T12:13:46.790Z,2.33
2023-03-11T12:16:29.832Z,4.03
2023-03-11T12:19:12.065Z,4.37
2023-03-11T12:21:57.213Z,8.35
2023-03-11T12:24:59.372Z,1.92
2023-03-11T12:27:54.218Z,4.97
2023-03-11T12:30:26.893Z,2.67
2023-03-11T12:33:03.080Z,10.95
2023-03-11T12:35:36.484Z,20.82
2023-03-11T12:38:27.163Z,5.78
2023-03-11T12:41:09.501Z,28.73
2023-03-11T12:43:42.481Z,5.05
2023-03-11T12:46:13.926Z,4.50
2023-03-11T12:48:51.728Z,6.92
2023-03-11T12:51:39.179Z,7.80
2023-03-11T12:54:35.715Z,8.98
2023-03-11T12:57:24.017Z,10.10
2023-03-11T13:00:24.439Z,11.60
2023-03-11T13:03:35.889Z,10.95
2023-03-11T13:06:25.983Z,5.87
2023-03-11T13:09:00.417Z,6.58
2023-03-11T13:11:39.330Z,7.78
2023-03-11T13:14:30.570Z,6.83
2023-03-11T13:17:25.969Z,8.43
2023-03-11T13:19:56.433Z,5.55
2023-03-11T13:22:58.723Z,20.45
2023-03-11T13:25:43.381Z,10.82
2023-03-11T13:28:57.213Z,7.22
2023-03-11T13:32:02.081Z,4.35
2023-03-11T13:34:56.532Z,2.60
2023-03-11T13:37:55.509Z,2.42
2023-03-11T13:40:39.256Z,5.08
2023-03-11T13:43:25.573Z,2.83
2023-03-11T13:46:35.093Z,3.37
2023-03-11T13:49:32.872Z,3.33
2023-03-11T13:52:02.658Z,2.17
2023-03-11T13:54:41.558Z,3.77
2023-03-11T13:57:34.391Z,2.20
2023-03-11T14:00:17.154Z,3.25
2023-03-11T14:02:50.425Z,3.17
2023-03-11T14:05:40.227Z,2.72
2023-03-11T14:08:27.595Z,3.60
2023-03-11T14:10:58.858Z,2.17
2023-03-11T14:13:33.135Z,3.27
2023-03-11T14:16:32.625Z,2.05
2023-03-11T14:19:15.770Z,4.62
2023-03-11T14:21:47.679Z,4.30
2023-03-11T14:24:28.469Z,6.87
2023-03-11T14:27:00.184Z,3.35
2023-03-11T14:29:39.807Z,6.70
2023-03-11T14:35:34.137Z,38.10
2023-03-11T14:40:32.343Z,5.55
2023-03-11T14:43:06.748Z,4.10
2023-03-11T14:45:38.407Z,3.75
2023-03-11T14:48:23.962Z,4.50
2023-03-11T14:50:53.393Z,2.17
2023-03-11T14:53:25.716Z,4.50
2023-03-11T14:56:07.119Z,9.70
2023-03-11T14:58:39.854Z,2.98
2023-03-11T15:01:21.420Z,2.37
2023-03-11T15:04:12.362Z,7.85
2023-03-11T15:06:43.691Z,4.80
2023-03-11T15:09:15.415Z,3.95
2023-03-11T15:11:58.715Z,5.58
2023-03-11T15:14:40.593Z,3.60
2023-03-11T15:17:37.067Z,4.42
2023-03-11T15:19:56.293Z,3.72
2023-03-11T15:22:38.129Z,5.20
2023-03-11T15:25:18.400Z,11.55
2023-03-11T15:27:46.350Z,4.08
2023-03-11T15:30:28.251Z,7.40
2023-03-11T15:32:57.534Z,11.48
2023-03-11T15:35:30.926Z,5.60
2023-03-11T15:40:57.176Z,3.10
2023-03-11T15:43:30.193Z,25.20
2023-03-11T15:46:01.147Z,3.58
2023-03-11T15:48:30.668Z,7.40
2023-03-11T15:51:00.115Z,9.03
2023-03-11T15:53:30.169Z,4.75
2023-03-11T15:56:07.298Z,4.33
2023-03-11T15:58:32.339Z,2.60
2023-03-11T16:01:00.069Z,7.72
2023-03-11T16:03:30.186Z,13.28
2023-03-11T16:05:57.250Z,8.23
2023-03-11T16:08:24.950Z,7.10
2023-03-11T16:10:52.204Z,5.85
2023-03-11T16:13:19.688Z,3.15
2023-03-11T16:15:47.349Z,6.17
2023-03-11T16:18:15.889Z,4.53
2023-03-11T16:20:50.136Z,4.85
2023-03-11T16:23:25.265Z,11.40
2023-03-11T16:26:02.458Z,1.72
2023-03-11T16:28:30.327Z,3.33
2023-03-11T16:30:58.137Z,6.25
2023-03-11T16:33:25.733Z,3.25
2023-03-11T16:35:53.702Z,2.52
2023-03-11T16:38:22.781Z,3.02
2023-03-11T16:41:00.453Z,2.90
2023-03-11T16:43:30.163Z,4.37
2023-03-11T16:45:57.657Z,7.87
2023-03-11T16:48:25.693Z,3.30
2023-03-11T16:50:53.193Z,6.25
2023-03-11T16:53:21.500Z,4.42
2023-03-11T16:55:49.071Z,3.20
2023-03-11T16:58:16.916Z,3.58
2023-03-11T17:00:45.645Z,8.15
2023-03-11T17:03:15.983Z,5.35
2023-03-11T17:05:43.835Z,6.00
2023-03-11T17:08:12.390Z,4.58
2023-03-11T17:10:43.590Z,5.55
2023-03-11T17:13:15.499Z,4.75
2023-03-11T17:15:44.104Z,3.15
2023-03-11T17:18:13.228Z,3.40
2023-03-11T17:20:43.099Z,6.90
2023-03-11T17:23:11.054Z,4.00
2023-03-11T17:25:41.812Z,5.50
2023-03-11T17:28:09.608Z,5.03
2023-03-11T17:30:43.223Z,3.33
2023-03-11T17:33:11.182Z,9.68
2023-03-11T17:35:40.267Z,2.72
2023-03-11T17:38:08.074Z,2.45
2023-03-11T17:40:37.197Z,7.92
2023-03-11T17:43:05.175Z,4.20
2023-03-11T17:45:33.035Z,2.25
2023-03-11T17:48:00.490Z,2.98
2023-03-11T17:50:28.185Z,2.87
2023-03-11T17:52:56.122Z,4.05
2023-03-11T17:55:23.825Z,4.75
2023-03-11T17:57:52.478Z,3.35
2023-03-11T18:00:22.005Z,10.58
2023-03-11T18:02:50.924Z,2.52
2023-03-11T18:05:20.418Z,3.92
2023-03-11T18:07:48.273Z,4.42
2023-03-11T18:10:16.494Z,3.65
2023-03-11T18:12:45.867Z,1.90
2023-03-11T18:15:16.596Z,3.92
2023-03-11T18:17:48.239Z,2.12
2023-03-11T18:20:17.510Z,6.62
2023-03-11T18:22:46.614Z,7.75
2023-03-11T18:25:14.743Z,4.65
2023-03-11T18:27:42.908Z,3.17
2023-03-11T18:30:13.810Z,4.05
2023-03-11T18:32:42.020Z,13.88
2023-03-11T18:35:09.975Z,17.48
2023-03-11T18:37:37.660Z,15.72
2023-03-11T18:40:06.882Z,21.65
2023-03-11T18:42:34.748Z,9.30
2023-03-11T18:45:02.742Z,7.83
2023-03-11T18:47:35.611Z,9.95
2023-03-11T18:50:04.358Z,15.08
2023-03-11T18:52:32.006Z,15.28
2023-03-11T18:54:59.543Z,19.82
2023-03-11T18:57:27.363Z,31.17
2023-03-11T18:59:55.127Z,15.88
2023-03-11T19:02:22.953Z,40.05
2023-03-11T19:04:50.440Z,17.92
2023-03-11T19:07:17.874Z,22.90
2023-03-11T19:09:47.878Z,26.97
2023-03-11T19:12:15.360Z,17.30
2023-03-11T19:14:42.922Z,10.72
2023-03-11T19:17:12.373Z,7.53
2023-03-11T19:19:40.151Z,7.12
2023-03-11T19:22:07.696Z,8.45
2023-03-11T19:24:35.350Z,7.47
2023-03-11T19:27:03.018Z,9.00
2023-03-11T19:29:30.760Z,8.00
2023-03-11T19:31:58.595Z,12.88
2023-03-11T19:34:26.656Z,7.87
2023-03-11T19:36:54.214Z,9.73
2023-03-11T19:39:21.851Z,20.17
2023-03-11T19:41:49.806Z,11.95
2023-03-11T19:44:17.361Z,19.80
2023-03-11T19:46:45.251Z,12.60
2023-03-11T19:49:13.022Z,12.75
2023-03-11T19:51:49.696Z,11.35
2023-03-11T19:54:14.425Z,17.57
2023-03-11T19:56:42.097Z,18.95
2023-03-11T19:59:09.938Z,33.80
2023-03-11T20:01:37.905Z,57.33
2023-03-11T20:04:05.534Z,20.30
2023-03-11T20:06:33.554Z,45.95
2023-03-11T20:09:01.012Z,20.68
2023-03-11T20:11:28.840Z,55.15
2023-03-11T20:13:56.644Z,35.52
2023-03-11T20:16:24.160Z,14.28
2023-03-11T20:18:52.472Z,17.35
2023-03-11T20:21:20.149Z,12.50
2023-03-11T20:23:48.556Z,17.40
2023-03-11T20:26:18.768Z,25.62
2023-03-11T20:28:47.024Z,24.65
2023-03-11T20:31:20.879Z,25.27
2023-03-11T20:33:50.260Z,41.75
2023-03-11T20:36:25.686Z,30.57
2023-03-11T20:38:55.675Z,33.40
2023-03-11T20:41:25.382Z,26.77
2023-03-11T20:43:55.514Z,36.50
2023-03-11T20:46:23.609Z,32.40
2023-03-11T20:48:51.384Z,66.30
2023-03-11T20:51:22.576Z,48.35
2023-03-11T20:53:50.612Z,72.58
2023-03-11T20:56:22.143Z,15.03
2023-03-11T20:58:51.682Z,44.45
2023-03-11T21:01:29.174Z,32.28
2023-03-11T21:04:00.450Z,32.15
2023-03-11T21:06:32.998Z,58.15
2023-03-11T21:09:05.541Z,44.20
2023-03-11T21:11:33.602Z,16.67
2023-03-11T21:14:01.203Z,3.80
2023-03-11T21:16:29.175Z,4.72
2023-03-11T21:18:57.803Z,3.95
2023-03-11T21:21:25.886Z,2.85
2023-03-11T21:23:54.269Z,4.05
2023-03-11T21:26:21.997Z,1.98
2023-03-11T21:28:49.805Z,2.67
2023-03-11T21:31:20.682Z,4.10
2023-03-11T21:33:54.636Z,4.00
2023-03-11T21:36:22.639Z,3.65
2023-03-11T21:38:50.888Z,3.10
2023-03-11T21:41:24.561Z,2.72
2023-03-11T21:43:54.542Z,2.30
2023-03-11T21:46:27.213Z,4.05
2023-03-11T21:48:55.444Z,3.98
2023-03-11T21:51:23.597Z,7.55
2023-03-11T21:53:51.475Z,5.10
2023-03-11T21:56:19.417Z,3.77
2023-03-11T21:58:47.299Z,3.22
2023-03-11T22:01:15.090Z,3.35
2023-03-11T22:03:43.437Z,3.08
2023-03-11T22:06:13.086Z,2.55
2023-03-11T22:08:42.068Z,2.50
2023-03-11T22:11:16.613Z,1.42
2023-03-11T22:13:47.246Z,2.10
2023-03-11T22:16:15.095Z,2.35
2023-03-11T22:18:43.383Z,2.33
2023-03-11T22:21:11.277Z,2.33
2023-03-11T22:23:39.336Z,2.60
2023-03-11T22:26:07.455Z,2.85
2023-03-11T22:28:35.210Z,3.40
2023-03-11T22:31:12.893Z,1.87
2023-03-11T22:33:40.623Z,2.58
2023-03-11T22:36:09.184Z,3.00
2023-03-11T22:38:37.791Z,3.33
2023-03-11T22:41:07.515Z,2.27
2023-03-11T22:43:35.778Z,2.40
2023-03-11T22:46:05.374Z,2.15
2023-03-11T22:48:34.178Z,2.40
2023-03-11T22:51:01.844Z,3.15
2023-03-11T22:53:29.733Z,2.85
2023-03-11T22:55:57.206Z,1.80
2023-03-11T22:58:24.791Z,3.60
2023-03-11T23:00:52.493Z,2.83
2023-03-11T23:03:20.413Z,2.60
2023-03-11T23:05:48.384Z,3.02
2023-03-11T23:08:16.439Z,3.75
2023-03-11T23:10:46.858Z,2.85
2023-03-11T23:13:15.378Z,3.83
2023-03-11T23:15:46.410Z,2.40
2023-03-11T23:18:16.145Z,2.02
2023-03-11T23:20:44.518Z,3.15
2023-03-11T23:23:13.690Z,2.22
2023-03-11T23:25:41.987Z,3.10
2023-03-11T23:28:09.776Z,3.08
2023-03-11T23:30:40.052Z,5.70
2023-03-11T23:33:08.163Z,2.55
2023-03-11T23:35:44.095Z,2.45
2023-03-11T23:38:11.863Z,3.00
2023-03-11T23:40:41.124Z,2.85
2023-03-11T23:43:08.971Z,2.40
2023-03-11T23:45:36.845Z,2.15
2023-03-11T23:48:04.537Z,1.70
2023-03-11T23:50:32.153Z,1.62
2023-03-11T23:53:00.050Z,1.85
2023-03-11T23:55:28.034Z,2.45
2023-03-11T23:57:55.439Z,1.75
